Greenview, CA (96037)

1:38 PM PDT on August 29, 2015 (GMT -0700)
KCAETNA3 | | Change Station
CLOSE
Current Station
Personal Weather Station
Location: Island Rd, Scott Valley, CA
Elevation: 2728 ft
Nearby Weather Stations

Elev 2728 ft 41.55 °N, 122.85 °W | Updated 46 seconds ago

Partly Cloudy
Partly Cloudy
72.4 °F
Feels Like 77 °F
N
8.0
Wind Variable Wind from WNW
Gusts 20.0 mph

Today
High -- | Low -- °F
--% Chance of Precip.
Yesterday
High -- | Low -- °F
Precip. -- in
6:34 AM 7:49 PM
Full, 100% visible
Pressure 29.87 in
Visibility 10.0 miles
Clouds Few 8000 ft
Heat Index 77 °F
Dew Point 48 °F
Humidity 42%
Rainfall 0.00 in
Snow Depth Not available.
UV 9 out of 12
Pollen 1.80 out of 12
Air Quality Not available.
Flu Activity Not available.
METAR KSIY 291953Z AUTO 23013KT 10SM FEW080 24/03 A2992 RMK AO2 SLP114 T02440033 TSNO
Pressure 29.87 in
Visibility 10.0 miles
Clouds Few 8000 ft
Heat Index 77 °F
Dew Point 48 °F
Humidity 42%
Rainfall 0.00 in
Snow Depth Not available.
UV 9 out of 12
Pollen 1.80 out of 12
Air Quality Not available.
Flu Activity Not available.
METAR KSIY 291953Z AUTO 23013KT 10SM FEW080 24/03 A2992 RMK AO2 SLP114 T02440033 TSNO

10-Day Weather Forecast

×

Almanac

Astronomy

Aug. 29, 2015 Rise Set
Actual Time
Civil Twilight
Nautical Twilight
Astronomical Twilight
Moon
Length of Visible Light
Length of Day
Tomorrow will be .
, % of the Moon is Illuminated

Today's Extremes

State Highs State Lows

Community

WunderPhotos

Upload Photos

1,850,793 photos uploaded!

WunderBlogs® & News

Nearby

Air Quality

  Air Quality AQ Index Pollutant
Not available.

Snow Depth

Station Depth Elevation

Earthquake Activity

City Distance Mag. Time & Date
Minimum magnitude displayed is 2.5.

Coastal Water Temperatures

Place Temperature

Stations

Nearby Weather Stations

Station Location Temp. Windchill Dew Point Humidity Wind Precip. Elev Updated Type